sensor_id;sensor_type;location;lat;lon;timestamp;pressure;altitude;pressure_sealevel;temperature;humidity
11830;BME280;5972;42.134;24.718;2023-06-26T00:00:07;99143.63;;;25.00;100.00
11830;BME280;5972;42.134;24.718;2023-06-26T00:02:34;99142.72;;;25.03;100.00
11830;BME280;5972;42.134;24.718;2023-06-26T00:05:01;99144.59;;;25.06;100.00
11830;BME280;5972;42.134;24.718;2023-06-26T00:07:28;99147.47;;;25.03;100.00
11830;BME280;5972;42.134;24.718;2023-06-26T00:09:56;99155.19;;;25.08;100.00
11830;BME280;5972;42.134;24.718;2023-06-26T00:12:25;99139.63;;;25.01;100.00
11830;BME280;5972;42.134;24.718;2023-06-26T00:14:52;99132.31;;;25.07;100.00
11830;BME280;5972;42.134;24.718;2023-06-26T00:17:19;99135.97;;;25.04;100.00
11830;BME280;5972;42.134;24.718;2023-06-26T00:19:45;99139.75;;;24.98;100.00
11830;BME280;5972;42.134;24.718;2023-06-26T00:22:13;99127.47;;;24.99;100.00
11830;BME280;5972;42.134;24.718;2023-06-26T00:24:40;99147.63;;;24.99;100.00
11830;BME280;5972;42.134;24.718;2023-06-26T00:27:07;99134.56;;;25.00;100.00
11830;BME280;5972;42.134;24.718;2023-06-26T00:29:35;99148.53;;;24.96;100.00
11830;BME280;5972;42.134;24.718;2023-06-26T00:32:02;99137.56;;;24.93;100.00
11830;BME280;5972;42.134;24.718;2023-06-26T00:34:28;99151.94;;;24.88;100.00
11830;BME280;5972;42.134;24.718;2023-06-26T00:36:55;99141.69;;;24.75;100.00
11830;BME280;5972;42.134;24.718;2023-06-26T00:39:22;99155.94;;;24.86;100.00
11830;BME280;5972;42.134;24.718;2023-06-26T00:41:51;99146.00;;;24.76;100.00
11830;BME280;5972;42.134;24.718;2023-06-26T00:44:19;99146.84;;;24.86;100.00
11830;BME280;5972;42.134;24.718;2023-06-26T00:46:47;99152.53;;;24.82;100.00
11830;BME280;5972;42.134;24.718;2023-06-26T00:49:14;99152.09;;;24.84;100.00
11830;BME280;5972;42.134;24.718;2023-06-26T00:51:41;99155.44;;;24.79;100.00
11830;BME280;5972;42.134;24.718;2023-06-26T00:54:08;99152.50;;;24.61;100.00
11830;BME280;5972;42.134;24.718;2023-06-26T00:56:35;99140.41;;;24.67;100.00
11830;BME280;5972;42.134;24.718;2023-06-26T00:59:03;99143.19;;;24.67;100.00
11830;BME280;5972;42.134;24.718;2023-06-26T01:01:30;99144.41;;;24.66;100.00
11830;BME280;5972;42.134;24.718;2023-06-26T01:03:58;99141.59;;;24.44;100.00
11830;BME280;5972;42.134;24.718;2023-06-26T01:06:25;99144.44;;;24.54;100.00
11830;BME280;5972;42.134;24.718;2023-06-26T01:08:55;99141.34;;;24.52;100.00
11830;BME280;5972;42.134;24.718;2023-06-26T01:11:22;99133.94;;;24.49;100.00
11830;BME280;5972;42.134;24.718;2023-06-26T01:13:49;99127.13;;;24.40;100.00
11830;BME280;5972;42.134;24.718;2023-06-26T01:16:17;99139.69;;;24.41;100.00
11830;BME280;5972;42.134;24.718;2023-06-26T01:18:45;99133.72;;;24.43;100.00
11830;BME280;5972;42.134;24.718;2023-06-26T01:21:15;99122.91;;;24.36;100.00
11830;BME280;5972;42.134;24.718;2023-06-26T01:23:52;99124.00;;;24.38;100.00
11830;BME280;5972;42.134;24.718;2023-06-26T01:26:26;99127.34;;;24.33;100.00
11830;BME280;5972;42.134;24.718;2023-06-26T01:28:56;99137.28;;;24.31;100.00
11830;BME280;5972;42.134;24.718;2023-06-26T01:31:24;99117.72;;;24.25;100.00
11830;BME280;5972;42.134;24.718;2023-06-26T01:33:51;99128.78;;;24.25;100.00
11830;BME280;5972;42.134;24.718;2023-06-26T01:36:18;99126.69;;;24.17;100.00
11830;BME280;5972;42.134;24.718;2023-06-26T01:38:45;99126.69;;;24.17;100.00
11830;BME280;5972;42.134;24.718;2023-06-26T01:41:11;99122.75;;;24.18;100.00
11830;BME280;5972;42.134;24.718;2023-06-26T01:43:53;99122.50;;;24.12;100.00
11830;BME280;5972;42.134;24.718;2023-06-26T01:46:27;99119.63;;;24.03;100.00
11830;BME280;5972;42.134;24.718;2023-06-26T01:49:12;99121.72;;;23.99;100.00
11830;BME280;5972;42.134;24.718;2023-06-26T01:51:45;99120.72;;;24.06;100.00
11830;BME280;5972;42.134;24.718;2023-06-26T01:54:17;99121.16;;;24.04;100.00
11830;BME280;5972;42.134;24.718;2023-06-26T01:56:45;99104.50;;;23.95;100.00
11830;BME280;5972;42.134;24.718;2023-06-26T01:59:17;99102.72;;;23.88;100.00
11830;BME280;5972;42.134;24.718;2023-06-26T02:01:46;99121.94;;;24.04;100.00
11830;BME280;5972;42.134;24.718;2023-06-26T02:04:13;99114.44;;;24.05;100.00
11830;BME280;5972;42.134;24.718;2023-06-26T02:06:40;99120.81;;;24.02;100.00
11830;BME280;5972;42.134;24.718;2023-06-26T02:09:07;99128.59;;;23.94;100.00
11830;BME280;5972;42.134;24.718;2023-06-26T02:11:34;99122.94;;;23.98;100.00
11830;BME280;5972;42.134;24.718;2023-06-26T02:14:00;99113.88;;;23.97;100.00
11830;BME280;5972;42.134;24.718;2023-06-26T02:16:29;99121.84;;;23.95;100.00
11830;BME280;5972;42.134;24.718;2023-06-26T02:18:56;99118.31;;;23.95;100.00
11830;BME280;5972;42.134;24.718;2023-06-26T02:21:23;99123.84;;;23.95;100.00
11830;BME280;5972;42.134;24.718;2023-06-26T02:23:50;99117.97;;;23.93;100.00
11830;BME280;5972;42.134;24.718;2023-06-26T02:26:17;99121.72;;;23.99;100.00
11830;BME280;5972;42.134;24.718;2023-06-26T02:28:43;99122.06;;;24.01;100.00
11830;BME280;5972;42.134;24.718;2023-06-26T02:31:10;99130.91;;;23.96;100.00
11830;BME280;5972;42.134;24.718;2023-06-26T02:33:38;99127.13;;;24.02;100.00
11830;BME280;5972;42.134;24.718;2023-06-26T02:36:05;99118.06;;;24.02;100.00
11830;BME280;5972;42.134;24.718;2023-06-26T02:38:32;99112.00;;;24.07;100.00
11830;BME280;5972;42.134;24.718;2023-06-26T02:40:59;99112.44;;;24.06;100.00
11830;BME280;5972;42.134;24.718;2023-06-26T02:43:25;99117.41;;;23.98;100.00
11830;BME280;5972;42.134;24.718;2023-06-26T02:45:52;99114.13;;;23.90;100.00
11830;BME280;5972;42.134;24.718;2023-06-26T02:48:19;99117.53;;;23.94;100.00
11830;BME280;5972;42.134;24.718;2023-06-26T02:50:47;99110.59;;;23.90;100.00
11830;BME280;5972;42.134;24.718;2023-06-26T02:53:14;99117.53;;;23.94;100.00
11830;BME280;5972;42.134;24.718;2023-06-26T02:55:41;99112.09;;;24.03;100.00
11830;BME280;5972;42.134;24.718;2023-06-26T02:58:08;99111.66;;;24.05;100.00
11830;BME280;5972;42.134;24.718;2023-06-26T03:00:34;99123.06;;;24.07;100.00
11830;BME280;5972;42.134;24.718;2023-06-26T03:03:06;99110.00;;;24.08;100.00
11830;BME280;5972;42.134;24.718;2023-06-26T03:05:33;99118.50;;;24.13;100.00
11830;BME280;5972;42.134;24.718;2023-06-26T03:08:02;99125.34;;;24.09;100.00
11830;BME280;5972;42.134;24.718;2023-06-26T03:10:28;99128.47;;;24.11;100.00
11830;BME280;5972;42.134;24.718;2023-06-26T03:12:55;99136.63;;;24.14;100.00
11830;BME280;5972;42.134;24.718;2023-06-26T03:15:22;99124.78;;;24.14;100.00
11830;BME280;5972;42.134;24.718;2023-06-26T03:17:49;99127.69;;;24.23;100.00
11830;BME280;5972;42.134;24.718;2023-06-26T03:20:16;99137.56;;;24.24;100.00
11830;BME280;5972;42.134;24.718;2023-06-26T03:22:43;99127.56;;;24.26;100.00
11830;BME280;5972;42.134;24.718;2023-06-26T03:25:11;99129.13;;;24.27;100.00
11830;BME280;5972;42.134;24.718;2023-06-26T03:27:38;99135.19;;;24.35;100.00
11830;BME280;5972;42.134;24.718;2023-06-26T03:30:05;99138.19;;;24.40;100.00
11830;BME280;5972;42.134;24.718;2023-06-26T03:32:32;99135.72;;;24.42;100.00
11830;BME280;5972;42.134;24.718;2023-06-26T03:34:59;99139.13;;;24.47;100.00
11830;BME280;5972;42.134;24.718;2023-06-26T03:37:27;99136.13;;;24.54;100.00
11830;BME280;5972;42.134;24.718;2023-06-26T03:39:54;99142.22;;;24.49;100.00
11830;BME280;5972;42.134;24.718;2023-06-26T03:42:22;99136.25;;;24.50;100.00
11830;BME280;5972;42.134;24.718;2023-06-26T03:44:49;99146.25;;;24.69;100.00
11830;BME280;5972;42.134;24.718;2023-06-26T03:47:15;99145.25;;;24.76;100.00
11830;BME280;5972;42.134;24.718;2023-06-26T03:49:42;99144.09;;;24.86;100.00
11830;BME280;5972;42.134;24.718;2023-06-26T03:52:09;99143.88;;;24.93;100.00
11830;BME280;5972;42.134;24.718;2023-06-26T03:54:36;99134.16;;;25.10;100.00
11830;BME280;5972;42.134;24.718;2023-06-26T03:57:02;99129.16;;;25.18;100.00
11830;BME280;5972;42.134;24.718;2023-06-26T03:59:31;99135.13;;;25.16;100.00
11830;BME280;5972;42.134;24.718;2023-06-26T04:01:57;99135.75;;;25.20;100.00
11830;BME280;5972;42.134;24.718;2023-06-26T04:04:24;99129.59;;;25.47;100.00
11830;BME280;5972;42.134;24.718;2023-06-26T04:06:51;99130.22;;;26.13;100.00
11830;BME280;5972;42.134;24.718;2023-06-26T04:09:18;99124.75;;;26.49;100.00
11830;BME280;5972;42.134;24.718;2023-06-26T04:11:44;99133.53;;;26.39;100.00
11830;BME280;5972;42.134;24.718;2023-06-26T04:14:11;99130.09;;;26.26;100.00
11830;BME280;5972;42.134;24.718;2023-06-26T04:16:39;99131.72;;;26.14;100.00
11830;BME280;5972;42.134;24.718;2023-06-26T04:19:06;99132.63;;;26.51;100.00
11830;BME280;5972;42.134;24.718;2023-06-26T04:21:33;99134.16;;;26.70;100.00
11830;BME280;5972;42.134;24.718;2023-06-26T04:24:00;99129.25;;;27.02;100.00
11830;BME280;5972;42.134;24.718;2023-06-26T04:26:26;99134.19;;;27.07;100.00
11830;BME280;5972;42.134;24.718;2023-06-26T04:28:54;99124.31;;;27.06;99.83
11830;BME280;5972;42.134;24.718;2023-06-26T04:31:21;99134.34;;;26.85;100.00
11830;BME280;5972;42.134;24.718;2023-06-26T04:33:49;99133.25;;;26.82;100.00
11830;BME280;5972;42.134;24.718;2023-06-26T04:36:16;99133.38;;;27.15;100.00
11830;BME280;5972;42.134;24.718;2023-06-26T04:38:43;99131.75;;;27.69;94.30
11830;BME280;5972;42.134;24.718;2023-06-26T04:41:10;99135.28;;;28.35;86.33
11830;BME280;5972;42.134;24.718;2023-06-26T04:43:37;99139.94;;;29.74;75.93
11830;BME280;5972;42.134;24.718;2023-06-26T04:46:04;99139.84;;;30.99;63.57
11830;BME280;5972;42.134;24.718;2023-06-26T04:48:32;99145.69;;;31.78;58.26
11830;BME280;5972;42.134;24.718;2023-06-26T04:51:00;99142.16;;;32.69;52.63
11830;BME280;5972;42.134;24.718;2023-06-26T04:53:26;99151.53;;;33.47;48.78
11830;BME280;5972;42.134;24.718;2023-06-26T04:55:53;99154.81;;;34.12;46.07
11830;BME280;5972;42.134;24.718;2023-06-26T04:58:20;99159.63;;;34.34;45.24
11830;BME280;5972;42.134;24.718;2023-06-26T05:00:47;99166.34;;;33.48;46.95
11830;BME280;5972;42.134;24.718;2023-06-26T05:03:15;99158.56;;;32.39;50.43
11830;BME280;5972;42.134;24.718;2023-06-26T05:05:42;99168.66;;;31.88;52.88
11830;BME280;5972;42.134;24.718;2023-06-26T05:08:18;99172.34;;;32.05;52.48
11830;BME280;5972;42.134;24.718;2023-06-26T05:10:45;99179.38;;;32.27;51.63
11830;BME280;5972;42.134;24.718;2023-06-26T05:13:12;99167.06;;;33.26;48.18
11830;BME280;5972;42.134;24.718;2023-06-26T05:15:40;99183.91;;;34.37;44.63
11830;BME280;5972;42.134;24.718;2023-06-26T05:18:07;99190.84;;;33.80;44.64
11830;BME280;5972;42.134;24.718;2023-06-26T05:20:34;99185.06;;;32.91;47.04
11830;BME280;5972;42.134;24.718;2023-06-26T05:23:01;99183.56;;;33.01;46.68
11830;BME280;5972;42.134;24.718;2023-06-26T05:25:30;99188.72;;;34.48;44.09
11830;BME280;5972;42.134;24.718;2023-06-26T05:27:58;99185.34;;;34.72;42.31
11830;BME280;5972;42.134;24.718;2023-06-26T05:30:26;99190.84;;;33.86;44.42
11830;BME280;5972;42.134;24.718;2023-06-26T05:32:54;99193.00;;;34.66;42.70
11830;BME280;5972;42.134;24.718;2023-06-26T05:35:21;99181.09;;;35.47;40.33
11830;BME280;5972;42.134;24.718;2023-06-26T05:37:49;99189.81;;;36.57;38.63
11830;BME280;5972;42.134;24.718;2023-06-26T05:40:17;99194.19;;;35.39;39.71
11830;BME280;5972;42.134;24.718;2023-06-26T05:42:47;99197.44;;;33.66;42.70
11830;BME280;5972;42.134;24.718;2023-06-26T05:45:14;99186.47;;;34.18;42.50
11830;BME280;5972;42.134;24.718;2023-06-26T05:47:41;99188.69;;;35.11;40.11
11830;BME280;5972;42.134;24.718;2023-06-26T05:50:09;99194.78;;;35.97;38.84
11830;BME280;5972;42.134;24.718;2023-06-26T05:52:36;99184.31;;;36.89;37.36
11830;BME280;5972;42.134;24.718;2023-06-26T05:55:05;99193.25;;;37.31;36.32
11830;BME280;5972;42.134;24.718;2023-06-26T05:57:32;99191.19;;;36.27;37.27
11830;BME280;5972;42.134;24.718;2023-06-26T06:00:02;99201.78;;;35.09;39.22
11830;BME280;5972;42.134;24.718;2023-06-26T06:02:32;99182.13;;;33.51;42.86
11830;BME280;5972;42.134;24.718;2023-06-26T06:04:59;99199.16;;;32.54;45.49
11830;BME280;5972;42.134;24.718;2023-06-26T06:07:25;99181.38;;;31.89;48.30
11830;BME280;5972;42.134;24.718;2023-06-26T06:09:52;99184.81;;;31.47;49.74
11830;BME280;5972;42.134;24.718;2023-06-26T06:12:19;99189.94;;;31.03;51.84
11830;BME280;5972;42.134;24.718;2023-06-26T06:14:45;99182.31;;;30.83;52.95
11830;BME280;5972;42.134;24.718;2023-06-26T06:17:14;99193.59;;;30.48;55.35
11830;BME280;5972;42.134;24.718;2023-06-26T06:19:40;99197.97;;;30.20;56.21
11830;BME280;5972;42.134;24.718;2023-06-26T06:22:07;99202.81;;;30.04;57.99
11830;BME280;5972;42.134;24.718;2023-06-26T06:24:34;99189.91;;;30.07;59.16
11830;BME280;5972;42.134;24.718;2023-06-26T06:27:01;99197.72;;;30.03;60.04
11830;BME280;5972;42.134;24.718;2023-06-26T06:29:27;99191.66;;;29.90;59.80
11830;BME280;5972;42.134;24.718;2023-06-26T06:31:54;99193.97;;;29.76;62.25
11830;BME280;5972;42.134;24.718;2023-06-26T06:34:22;99197.03;;;29.49;62.55
11830;BME280;5972;42.134;24.718;2023-06-26T06:36:49;99190.50;;;29.38;63.49
11830;BME280;5972;42.134;24.718;2023-06-26T06:39:16;99198.16;;;29.13;65.11
11830;BME280;5972;42.134;24.718;2023-06-26T06:41:43;99188.06;;;29.16;66.49
11830;BME280;5972;42.134;24.718;2023-06-26T06:44:09;99186.69;;;28.97;66.79
11830;BME280;5972;42.134;24.718;2023-06-26T06:46:36;99185.59;;;28.70;69.26
11830;BME280;5972;42.134;24.718;2023-06-26T06:49:03;99187.81;;;28.66;68.69
11830;BME280;5972;42.134;24.718;2023-06-26T06:51:32;99183.25;;;28.54;69.44
11830;BME280;5972;42.134;24.718;2023-06-26T06:53:59;99181.72;;;28.53;69.47
11830;BME280;5972;42.134;24.718;2023-06-26T06:56:26;99187.59;;;28.79;67.59
11830;BME280;5972;42.134;24.718;2023-06-26T06:58:53;99193.94;;;28.79;67.15
11830;BME280;5972;42.134;24.718;2023-06-26T07:01:20;99187.94;;;28.96;66.35
11830;BME280;5972;42.134;24.718;2023-06-26T07:03:46;99186.41;;;29.09;63.03
11830;BME280;5972;42.134;24.718;2023-06-26T07:06:13;99189.59;;;29.31;60.25
11830;BME280;5972;42.134;24.718;2023-06-26T07:08:41;99194.84;;;29.39;60.25
11830;BME280;5972;42.134;24.718;2023-06-26T07:11:08;99186.28;;;29.57;57.28
11830;BME280;5972;42.134;24.718;2023-06-26T07:13:35;99194.75;;;29.62;56.63
11830;BME280;5972;42.134;24.718;2023-06-26T07:16:02;99176.28;;;29.94;55.21
11830;BME280;5972;42.134;24.718;2023-06-26T07:18:28;99186.38;;;29.62;55.40
11830;BME280;5972;42.134;24.718;2023-06-26T07:20:55;99185.81;;;29.58;55.42
11830;BME280;5972;42.134;24.718;2023-06-26T07:23:22;99186.28;;;29.57;55.72
11830;BME280;5972;42.134;24.718;2023-06-26T07:25:50;99173.69;;;29.32;54.67
11830;BME280;5972;42.134;24.718;2023-06-26T07:28:17;99184.94;;;29.67;55.33
11830;BME280;5972;42.134;24.718;2023-06-26T07:30:44;99186.19;;;29.95;54.89
11830;BME280;5972;42.134;24.718;2023-06-26T07:33:10;99178.75;;;30.07;52.70
11830;BME280;5972;42.134;24.718;2023-06-26T07:35:37;99172.94;;;30.45;50.38
11830;BME280;5972;42.134;24.718;2023-06-26T07:38:04;99174.00;;;30.88;49.37
11830;BME280;5972;42.134;24.718;2023-06-26T07:40:31;99164.03;;;30.82;49.10
11830;BME280;5972;42.134;24.718;2023-06-26T07:42:59;99172.66;;;30.58;47.86
11830;BME280;5972;42.134;24.718;2023-06-26T07:45:26;99172.00;;;31.09;46.71
11830;BME280;5972;42.134;24.718;2023-06-26T07:47:53;99154.44;;;31.60;45.95
11830;BME280;5972;42.134;24.718;2023-06-26T07:50:19;99168.16;;;31.90;45.35
11830;BME280;5972;42.134;24.718;2023-06-26T07:52:48;99173.28;;;32.28;43.73
11830;BME280;5972;42.134;24.718;2023-06-26T07:55:15;99179.69;;;32.40;43.43
11830;BME280;5972;42.134;24.718;2023-06-26T07:57:42;99154.72;;;31.62;44.46
11830;BME280;5972;42.134;24.718;2023-06-26T08:00:11;99171.53;;;31.99;44.49
11830;BME280;5972;42.134;24.718;2023-06-26T08:02:38;99174.03;;;31.60;44.63
11830;BME280;5972;42.134;24.718;2023-06-26T08:05:05;99185.13;;;31.55;45.79
11830;BME280;5972;42.134;24.718;2023-06-26T08:07:32;99178.69;;;31.43;44.73
11830;BME280;5972;42.134;24.718;2023-06-26T08:09:58;99181.16;;;31.35;46.13
11830;BME280;5972;42.134;24.718;2023-06-26T08:12:25;99187.56;;;30.55;48.18
11830;BME280;5972;42.134;24.718;2023-06-26T08:14:52;99178.72;;;30.56;49.33
11830;BME280;5972;42.134;24.718;2023-06-26T08:17:20;99154.56;;;30.53;48.84
11830;BME280;5972;42.134;24.718;2023-06-26T08:19:47;99184.50;;;30.53;49.11
11830;BME280;5972;42.134;24.718;2023-06-26T08:22:13;99176.22;;;30.44;49.59
11830;BME280;5972;42.134;24.718;2023-06-26T08:24:40;99181.72;;;30.18;50.02
11830;BME280;5972;42.134;24.718;2023-06-26T08:27:07;99182.66;;;30.15;50.67
11830;BME280;5972;42.134;24.718;2023-06-26T08:29:34;99187.94;;;30.28;50.40
11830;BME280;5972;42.134;24.718;2023-06-26T08:32:00;99191.28;;;29.97;51.00
11830;BME280;5972;42.134;24.718;2023-06-26T08:34:29;99188.47;;;29.23;54.12
11830;BME280;5972;42.134;24.718;2023-06-26T08:36:56;99179.00;;;29.06;54.93
11830;BME280;5972;42.134;24.718;2023-06-26T08:39:23;99181.78;;;28.91;55.60
11830;BME280;5972;42.134;24.718;2023-06-26T08:41:50;99179.22;;;29.17;55.57
11830;BME280;5972;42.134;24.718;2023-06-26T08:44:17;99165.19;;;29.26;55.34
11830;BME280;5972;42.134;24.718;2023-06-26T08:46:44;99177.16;;;29.42;54.48
11830;BME280;5972;42.134;24.718;2023-06-26T08:49:14;99169.75;;;29.68;52.28
11830;BME280;5972;42.134;24.718;2023-06-26T08:51:51;99173.47;;;29.94;51.04
11830;BME280;5972;42.134;24.718;2023-06-26T08:54:22;99160.47;;;30.06;50.55
11830;BME280;5972;42.134;24.718;2023-06-26T08:56:49;99158.63;;;30.38;49.93
11830;BME280;5972;42.134;24.718;2023-06-26T08:59:17;99163.31;;;30.46;49.85
11830;BME280;5972;42.134;24.718;2023-06-26T09:01:44;99160.63;;;30.72;49.89
11830;BME280;5972;42.134;24.718;2023-06-26T09:04:10;99154.78;;;30.70;48.97
11830;BME280;5972;42.134;24.718;2023-06-26T09:06:37;99153.44;;;30.66;49.76
11830;BME280;5972;42.134;24.718;2023-06-26T09:09:06;99149.38;;;30.87;47.96
11830;BME280;5972;42.134;24.718;2023-06-26T09:11:33;99150.63;;;31.06;47.94
11830;BME280;5972;42.134;24.718;2023-06-26T09:14:00;99151.44;;;31.38;47.02
11830;BME280;5972;42.134;24.718;2023-06-26T09:16:30;99142.50;;;31.34;46.05
11830;BME280;5972;42.134;24.718;2023-06-26T09:18:57;99144.97;;;31.52;45.69
11830;BME280;5972;42.134;24.718;2023-06-26T09:21:23;99143.38;;;31.77;45.83
11830;BME280;5972;42.134;24.718;2023-06-26T09:23:52;99145.28;;;31.91;45.20
11830;BME280;5972;42.134;24.718;2023-06-26T09:26:21;99155.19;;;31.87;44.89
11830;BME280;5972;42.134;24.718;2023-06-26T09:28:48;99152.78;;;31.74;45.57
11830;BME280;5972;42.134;24.718;2023-06-26T09:31:16;99149.50;;;31.75;45.82
11830;BME280;5972;42.134;24.718;2023-06-26T09:33:46;99146.91;;;31.15;45.93
11830;BME280;5972;42.134;24.718;2023-06-26T09:36:19;99148.16;;;30.93;46.26
11830;BME280;5972;42.134;24.718;2023-06-26T09:38:47;99145.09;;;30.91;47.30
11830;BME280;5972;42.134;24.718;2023-06-26T09:41:15;99148.03;;;30.42;52.05
11830;BME280;5972;42.134;24.718;2023-06-26T09:43:47;99155.81;;;29.53;58.20
11830;BME280;5972;42.134;24.718;2023-06-26T09:46:16;99155.13;;;29.44;60.99
11830;BME280;5972;42.134;24.718;2023-06-26T09:48:43;99174.28;;;29.36;61.97
11830;BME280;5972;42.134;24.718;2023-06-26T09:51:10;99173.31;;;28.86;67.85
11830;BME280;5972;42.134;24.718;2023-06-26T09:53:37;99170.47;;;28.47;75.04
11830;BME280;5972;42.134;24.718;2023-06-26T09:56:07;99174.63;;;27.86;84.66
11830;BME280;5972;42.134;24.718;2023-06-26T09:58:36;99185.34;;;27.60;87.69
11830;BME280;5972;42.134;24.718;2023-06-26T10:01:05;99175.91;;;27.49;91.34
11830;BME280;5972;42.134;24.718;2023-06-26T10:03:34;99165.50;;;27.86;88.11
11830;BME280;5972;42.134;24.718;2023-06-26T10:06:02;99170.00;;;28.25;92.91
11830;BME280;5972;42.134;24.718;2023-06-26T10:08:30;99169.16;;;28.58;90.90
11830;BME280;5972;42.134;24.718;2023-06-26T10:10:57;99161.81;;;28.45;92.46
11830;BME280;5972;42.134;24.718;2023-06-26T10:13:28;99152.16;;;28.56;88.43
11830;BME280;5972;42.134;24.718;2023-06-26T10:15:59;99150.75;;;28.36;86.99
11830;BME280;5972;42.134;24.718;2023-06-26T10:18:30;99145.78;;;28.40;92.23
11830;BME280;5972;42.134;24.718;2023-06-26T10:21:00;99156.34;;;28.27;90.09
11830;BME280;5972;42.134;24.718;2023-06-26T10:23:30;99143.56;;;28.44;90.30
11830;BME280;5972;42.134;24.718;2023-06-26T10:25:58;99144.56;;;28.56;90.65
11830;BME280;5972;42.134;24.718;2023-06-26T10:28:28;99143.16;;;28.84;92.27
11830;BME280;5972;42.134;24.718;2023-06-26T10:30:57;99147.59;;;29.20;78.63
11830;BME280;5972;42.134;24.718;2023-06-26T10:33:25;99138.41;;;29.58;71.34
11830;BME280;5972;42.134;24.718;2023-06-26T10:36:12;99134.28;;;30.18;69.33
11830;BME280;5972;42.134;24.718;2023-06-26T10:38:49;99129.13;;;30.72;55.56
11830;BME280;5972;42.134;24.718;2023-06-26T10:41:20;99127.66;;;31.22;53.16
11830;BME280;5972;42.134;24.718;2023-06-26T10:43:49;99126.09;;;31.78;50.57
11830;BME280;5972;42.134;24.718;2023-06-26T10:46:18;99120.66;;;32.01;46.85
11830;BME280;5972;42.134;24.718;2023-06-26T10:48:56;99124.22;;;32.44;44.81
11830;BME280;5972;42.134;24.718;2023-06-26T10:51:24;99113.28;;;32.46;44.78
11830;BME280;5972;42.134;24.718;2023-06-26T10:53:54;99110.50;;;32.51;44.77
11830;BME280;5972;42.134;24.718;2023-06-26T10:56:21;99104.41;;;32.58;44.68
11830;BME280;5972;42.134;24.718;2023-06-26T10:58:48;99108.25;;;32.61;44.79
11830;BME280;5972;42.134;24.718;2023-06-26T11:01:19;99108.50;;;32.63;45.03
11830;BME280;5972;42.134;24.718;2023-06-26T11:03:48;99110.22;;;32.44;46.61
11830;BME280;5972;42.134;24.718;2023-06-26T11:06:18;99102.88;;;32.52;46.93
11830;BME280;5972;42.134;24.718;2023-06-26T11:08:49;99104.72;;;32.72;47.14
11830;BME280;5972;42.134;24.718;2023-06-26T11:11:17;99104.53;;;32.92;45.63
11830;BME280;5972;42.134;24.718;2023-06-26T11:13:45;99101.47;;;32.84;43.44
11830;BME280;5972;42.134;24.718;2023-06-26T11:16:13;99095.63;;;32.88;42.82
11830;BME280;5972;42.134;24.718;2023-06-26T11:18:41;99095.59;;;32.77;50.49
11830;BME280;5972;42.134;24.718;2023-06-26T11:21:08;99098.97;;;32.38;52.26
11830;BME280;5972;42.134;24.718;2023-06-26T11:23:36;99073.88;;;31.33;49.53
11830;BME280;5972;42.134;24.718;2023-06-26T11:26:15;99085.00;;;31.27;56.64
11830;BME280;5972;42.134;24.718;2023-06-26T11:28:50;99077.47;;;31.08;58.64
11830;BME280;5972;42.134;24.718;2023-06-26T11:31:29;99098.34;;;31.12;60.44
11830;BME280;5972;42.134;24.718;2023-06-26T11:34:01;99094.72;;;31.06;59.99
11830;BME280;5972;42.134;24.718;2023-06-26T11:36:33;99088.47;;;30.91;58.81
11830;BME280;5972;42.134;24.718;2023-06-26T11:39:05;99098.16;;;30.70;60.26
11830;BME280;5972;42.134;24.718;2023-06-26T11:41:34;99097.44;;;30.34;65.44
11830;BME280;5972;42.134;24.718;2023-06-26T11:44:04;99093.66;;;30.17;66.16
11830;BME280;5972;42.134;24.718;2023-06-26T11:46:35;99094.13;;;29.95;68.57
11830;BME280;5972;42.134;24.718;2023-06-26T11:49:07;99101.16;;;29.76;66.33
11830;BME280;5972;42.134;24.718;2023-06-26T11:51:38;99095.09;;;29.92;70.27
11830;BME280;5972;42.134;24.718;2023-06-26T11:54:08;99098.59;;;30.07;63.76
11830;BME280;5972;42.134;24.718;2023-06-26T11:56:39;99098.59;;;30.07;70.71
11830;BME280;5972;42.134;24.718;2023-06-26T11:59:07;99108.09;;;29.81;78.27
11830;BME280;5972;42.134;24.718;2023-06-26T12:01:35;99109.19;;;29.54;81.83
11830;BME280;5972;42.134;24.718;2023-06-26T12:04:03;99116.03;;;29.38;86.11
11830;BME280;5972;42.134;24.718;2023-06-26T12:06:33;99114.97;;;29.36;85.73
11830;BME280;5972;42.134;24.718;2023-06-26T12:09:04;99117.75;;;29.50;84.46
11830;BME280;5972;42.134;24.718;2023-06-26T12:11:35;99117.66;;;29.45;81.50
11830;BME280;5972;42.134;24.718;2023-06-26T12:14:05;99103.28;;;29.81;80.12
11830;BME280;5972;42.134;24.718;2023-06-26T12:16:33;99113.81;;;30.27;74.91
11830;BME280;5972;42.134;24.718;2023-06-26T12:19:01;99111.91;;;30.53;62.60
11830;BME280;5972;42.134;24.718;2023-06-26T12:21:29;99112.34;;;30.92;52.83
11830;BME280;5972;42.134;24.718;2023-06-26T12:23:59;99108.19;;;31.33;49.82
11830;BME280;5972;42.134;24.718;2023-06-26T12:26:27;99104.94;;;31.41;46.89
11830;BME280;5972;42.134;24.718;2023-06-26T12:29:01;99111.22;;;31.04;48.14
11830;BME280;5972;42.134;24.718;2023-06-26T12:31:31;99113.81;;;31.39;47.15
11830;BME280;5972;42.134;24.718;2023-06-26T12:33:58;99115.97;;;31.81;45.60
11830;BME280;5972;42.134;24.718;2023-06-26T12:36:25;99113.91;;;32.13;45.82
11830;BME280;5972;42.134;24.718;2023-06-26T12:38:52;99120.03;;;32.23;43.52
11830;BME280;5972;42.134;24.718;2023-06-26T12:41:20;99123.41;;;32.32;43.63
11830;BME280;5972;42.134;24.718;2023-06-26T12:43:55;99123.69;;;32.40;42.86
11830;BME280;5972;42.134;24.718;2023-06-26T12:46:34;99131.00;;;32.74;42.57
11830;BME280;5972;42.134;24.718;2023-06-26T12:49:01;99122.91;;;32.98;41.92
11830;BME280;5972;42.134;24.718;2023-06-26T12:51:28;99126.31;;;32.54;49.84
11830;BME280;5972;42.134;24.718;2023-06-26T12:53:55;99131.81;;;31.58;55.98
11830;BME280;5972;42.134;24.718;2023-06-26T12:56:21;99100.66;;;31.14;57.55
11830;BME280;5972;42.134;24.718;2023-06-26T12:58:48;99126.56;;;30.94;59.20
11830;BME280;5972;42.134;24.718;2023-06-26T13:01:15;99129.91;;;30.52;61.50